Time;durP1;ratioP1;P1;durP2;ratioP2;P2;SDS_P1;SDS_P2;PMS_P1;PMS_P2;Temp;Humidity;BMP_temperature;BMP_pressure;BME280_temperature;BME280_humidity;BME280_pressure;Samples;Min_cycle;Max_cycle;Signal;HPM_P1;HPM_P2
2023/09/24 00:00:32;;;;;;;6.60;4.50;;;;;;;19.67;100.00;101000.66;107013;1258;62252;-71
2023/09/24 00:03:21;;;;;;;9.70;5.10;;;;;;;19.69;100.00;100998.42;107079;1248;62801;-72
2023/09/24 00:05:51;;;;;;;6.50;4.40;;;;;;;19.66;100.00;100993.91;107118;1253;62052;-70
2023/09/24 00:08:21;;;;;;;6.70;4.60;;;;;;;19.68;100.00;100997.79;107063;1248;75195;-71
2023/09/24 00:10:52;;;;;;;5.90;4.10;;;;;;;19.64;100.00;100998.95;107000;1248;59010;-73
2023/09/24 00:13:23;;;;;;;8.90;4.80;;;;;;;19.60;100.00;100996.80;107091;1248;60164;-70
2023/09/24 00:15:53;;;;;;;7.20;4.50;;;;;;;19.55;100.00;101004.42;107028;1245;73501;-72
2023/09/24 00:18:22;;;;;;;6.40;4.60;;;;;;;19.51;100.00;101005.61;107102;1247;71778;-69
2023/09/24 00:20:51;;;;;;;6.20;4.30;;;;;;;19.48;100.00;100999.20;107104;1252;68712;-71
2023/09/24 00:23:20;;;;;;;8.10;4.90;;;;;;;19.43;100.00;101000.98;107126;1249;63060;-70
2023/09/24 00:25:49;;;;;;;6.60;4.70;;;;;;;19.41;100.00;101002.08;107089;1248;58018;-71
2023/09/24 00:28:19;;;;;;;9.00;5.10;;;;;;;19.40;100.00;101000.91;107001;1248;59081;-72
2023/09/24 00:30:48;;;;;;;8.10;4.80;;;;;;;19.43;100.00;100996.67;107118;1247;71706;-70
2023/09/24 00:33:18;;;;;;;8.00;5.90;;;;;;;19.42;100.00;100993.83;106964;1258;72542;-71
2023/09/24 00:35:48;;;;;;;6.20;4.80;;;;;;;19.42;100.00;100997.89;106991;1251;59424;-72
2023/09/24 00:38:18;;;;;;;7.10;4.80;;;;;;;19.40;100.00;101002.20;107067;1258;62868;-72
2023/09/24 00:40:47;;;;;;;9.50;4.90;;;;;;;19.36;100.00;101003.98;107083;1248;58960;-70
2023/09/24 00:43:34;;;;;;;5.90;4.40;;;;;;;19.34;100.00;101000.17;107045;1247;61435;-70
2023/09/24 00:46:04;;;;;;;8.20;4.60;;;;;;;19.29;100.00;100998.69;107012;1251;63548;-69
2023/09/24 00:48:34;;;;;;;8.00;5.00;;;;;;;19.25;100.00;100998.87;106918;1251;60696;-70
2023/09/24 00:51:30;;;;;;;7.10;4.90;;;;;;;19.25;100.00;101000.50;107017;1251;59806;-70
2023/09/24 00:54:00;;;;;;;6.70;4.70;;;;;;;19.23;100.00;101009.23;107073;1248;72965;-70
2023/09/24 00:56:29;;;;;;;5.70;4.60;;;;;;;19.20;100.00;101011.86;106992;1258;63088;-70
2023/09/24 00:58:59;;;;;;;7.30;4.90;;;;;;;19.13;100.00;101015.58;107157;1253;57505;-70
2023/09/24 01:01:29;;;;;;;7.60;5.10;;;;;;;19.08;100.00;101009.86;107122;1248;71409;-70
2023/09/24 01:03:58;;;;;;;9.40;5.10;;;;;;;19.04;100.00;101014.89;107227;1248;61191;-72
2023/09/24 01:06:29;;;;;;;7.90;5.70;;;;;;;19.02;100.00;101019.50;107114;1253;59219;-72
2023/09/24 01:08:58;;;;;;;6.40;4.80;;;;;;;19.07;100.00;101025.19;107042;1248;73783;-68
2023/09/24 01:11:31;;;;;;;10.00;5.10;;;;;;;19.12;100.00;101029.84;107033;1248;58939;-71
2023/09/24 01:14:01;;;;;;;6.90;4.80;;;;;;;19.12;100.00;101030.14;107048;1248;58221;-71
2023/09/24 01:16:32;;;;;;;7.10;5.00;;;;;;;19.11;100.00;101032.19;107125;1254;63359;-71
2023/09/24 01:19:02;;;;;;;7.50;4.60;;;;;;;19.09;100.00;101031.91;107072;1251;60956;-70
2023/09/24 01:21:32;;;;;;;8.70;6.00;;;;;;;19.08;100.00;101036.20;107110;1258;60321;-70
2023/09/24 01:24:01;;;;;;;8.90;4.50;;;;;;;19.07;100.00;101040.90;107089;1248;63041;-71
2023/09/24 01:26:31;;;;;;;9.20;5.00;;;;;;;19.04;100.00;101039.36;107267;1251;62727;-71
2023/09/24 01:29:02;;;;;;;9.10;5.60;;;;;;;19.01;100.00;101036.52;107135;1248;57502;-70
2023/09/24 01:31:32;;;;;;;8.50;5.30;;;;;;;19.01;100.00;101037.10;107010;1255;62067;-70
2023/09/24 01:34:05;;;;;;;7.80;4.70;;;;;;;19.00;100.00;101034.88;107005;1248;61430;-70
2023/09/24 01:36:35;;;;;;;6.30;5.50;;;;;;;18.94;100.00;101038.71;107006;1248;68876;-70
2023/09/24 01:39:04;;;;;;;7.60;4.70;;;;;;;18.94;100.00;101043.41;106836;1258;63031;-70
2023/09/24 01:41:33;;;;;;;7.30;4.80;;;;;;;18.92;100.00;101045.09;106768;1251;59462;-70
2023/09/24 01:44:03;;;;;;;6.50;5.00;;;;;;;18.84;100.00;101045.23;106819;1257;60228;-70
2023/09/24 01:46:32;;;;;;;7.40;4.70;;;;;;;18.81;100.00;101044.96;106789;1248;63423;-70
2023/09/24 01:49:01;;;;;;;6.20;5.10;;;;;;;18.73;100.00;101040.45;106841;1255;71321;-70
2023/09/24 01:51:31;;;;;;;9.80;5.10;;;;;;;18.69;100.00;101035.55;106795;1247;70982;-70
2023/09/24 01:54:00;;;;;;;7.60;5.60;;;;;;;18.66;100.00;101036.27;106960;1248;62798;-70
2023/09/24 01:56:30;;;;;;;6.40;5.20;;;;;;;18.70;100.00;101043.58;106909;1248;63282;-70
2023/09/24 01:58:59;;;;;;;6.60;5.00;;;;;;;18.70;100.00;101045.35;106936;1248;58301;-70
2023/09/24 02:01:28;;;;;;;8.20;5.20;;;;;;;18.66;100.00;101045.42;106799;1248;73420;-70
2023/09/24 02:03:59;;;;;;;8.30;5.30;;;;;;;18.63;100.00;101045.94;107012;1256;72678;-72
2023/09/24 02:06:30;;;;;;;7.60;5.70;;;;;;;18.66;100.00;101050.23;106984;1248;59024;-70
2023/09/24 02:09:01;;;;;;;9.20;5.80;;;;;;;18.65;100.00;101053.30;106964;1248;74206;-69
2023/09/24 02:11:30;;;;;;;8.00;5.70;;;;;;;18.65;100.00;101051.70;107024;1247;59041;-69
2023/09/24 02:13:59;;;;;;;9.50;5.20;;;;;;;18.68;100.00;101053.20;107008;1253;59012;-69
2023/09/24 02:16:30;;;;;;;7.70;5.10;;;;;;;18.71;100.00;101053.33;107141;1247;72958;-70
2023/09/24 02:19:00;;;;;;;7.50;5.20;;;;;;;18.68;100.00;101051.39;107060;1248;71890;-71
2023/09/24 02:21:30;;;;;;;7.00;4.90;;;;;;;18.64;100.00;101053.02;107136;1255;59702;-70
2023/09/24 02:23:59;;;;;;;6.20;4.70;;;;;;;18.60;100.00;101054.65;107146;1248;63029;-71
2023/09/24 02:26:29;;;;;;;6.50;5.30;;;;;;;18.59;100.00;101060.92;107082;1248;57905;-70
2023/09/24 02:28:58;;;;;;;6.00;5.00;;;;;;;18.57;100.00;101064.67;107053;1245;61050;-71
2023/09/24 02:31:27;;;;;;;8.30;5.70;;;;;;;18.54;100.00;101069.21;107088;1248;64230;-70
2023/09/24 02:33:56;;;;;;;9.90;5.70;;;;;;;18.49;100.00;101070.20;107043;1247;60726;-72
2023/09/24 02:36:25;;;;;;;9.60;5.60;;;;;;;18.48;100.00;101072.77;107084;1248;59088;-71
2023/09/24 02:38:56;;;;;;;9.30;5.50;;;;;;;18.45;100.00;101070.83;107109;1247;63186;-72
2023/09/24 02:41:25;;;;;;;9.30;7.50;;;;;;;18.44;100.00;101067.77;107026;1249;58984;-70
2023/09/24 02:43:54;;;;;;;7.80;6.50;;;;;;;18.51;100.00;101064.00;107067;1254;59325;-70
2023/09/24 02:46:25;;;;;;;7.80;6.00;;;;;;;18.53;100.00;101059.03;107058;1249;64306;-70
2023/09/24 02:48:55;;;;;;;7.90;5.80;;;;;;;18.51;100.00;101061.71;107070;1246;72101;-70
2023/09/24 02:51:23;;;;;;;7.70;6.60;;;;;;;18.47;100.00;101064.07;107020;1249;69680;-70
2023/09/24 02:53:52;;;;;;;8.00;5.80;;;;;;;18.53;100.00;101062.60;106991;1248;62554;-71
2023/09/24 02:56:21;;;;;;;11.70;6.00;;;;;;;18.54;100.00;101061.74;107049;1251;62719;-71
2023/09/24 02:58:50;;;;;;;9.30;6.10;;;;;;;18.43;100.00;101063.22;107021;1258;60780;-70
2023/09/24 03:01:20;;;;;;;8.60;6.60;;;;;;;18.35;100.00;101064.92;107039;1251;63915;-70
2023/09/24 03:03:50;;;;;;;6.50;5.80;;;;;;;18.39;100.00;101062.21;107017;1247;61496;-71
2023/09/24 03:06:20;;;;;;;9.50;6.60;;;;;;;18.42;100.00;101061.94;107086;1248;59073;-71
2023/09/24 03:08:49;;;;;;;8.50;6.70;;;;;;;18.41;100.00;101064.32;107225;1249;72325;-70
2023/09/24 03:11:18;;;;;;;14.10;6.80;;;;;;;18.43;100.00;101070.98;107036;1247;58698;-70
2023/09/24 03:13:47;;;;;;;9.40;6.20;;;;;;;18.46;100.00;101072.77;107096;1248;57562;-70
2023/09/24 03:16:16;;;;;;;9.20;6.30;;;;;;;18.44;100.00;101074.43;107200;1254;61938;-70
2023/09/24 03:18:47;;;;;;;10.90;6.60;;;;;;;18.40;100.00;101072.67;107030;1252;61441;-72
2023/09/24 03:21:16;;;;;;;9.60;6.80;;;;;;;18.42;100.00;101069.55;107126;1257;68415;-72
2023/09/24 03:23:45;;;;;;;10.50;6.70;;;;;;;18.43;100.00;101066.21;107102;1248;74325;-73
2023/09/24 03:26:16;;;;;;;8.30;6.60;;;;;;;18.46;100.00;101068.06;107203;1248;59104;-73
2023/09/24 03:28:47;;;;;;;7.90;7.00;;;;;;;18.42;100.00;101065.95;107152;1248;60775;-71
2023/09/24 03:31:17;;;;;;;10.60;6.20;;;;;;;18.38;100.00;101063.73;107091;1248;73983;-70
2023/09/24 03:33:48;;;;;;;10.90;6.60;;;;;;;18.41;100.00;101063.46;107054;1253;72385;-69
2023/09/24 03:36:17;;;;;;;10.00;6.70;;;;;;;18.38;100.00;101064.66;107025;1248;72983;-69
2023/09/24 03:38:47;;;;;;;11.70;7.10;;;;;;;18.30;100.00;101062.94;107139;1248;73794;-70
2023/09/24 03:41:16;;;;;;;8.50;7.10;;;;;;;18.26;100.00;101061.27;107134;1248;59072;-69
2023/09/24 03:43:47;;;;;;;7.80;6.70;;;;;;;18.33;100.00;101059.86;107210;1248;61088;-72
2023/09/24 03:46:17;;;;;;;7.80;7.00;;;;;;;18.32;100.00;101059.61;107243;1245;63742;-71
2023/09/24 03:48:46;;;;;;;8.30;7.10;;;;;;;18.29;100.00;101060.80;107036;1252;72422;-70
2023/09/24 03:51:15;;;;;;;8.60;6.50;;;;;;;18.30;100.00;101067.34;107179;1245;60382;-69
2023/09/24 03:53:46;;;;;;;9.60;7.40;;;;;;;18.26;100.00;101069.15;106989;1247;63856;-72
2023/09/24 03:56:17;;;;;;;7.40;6.50;;;;;;;18.26;100.00;101074.05;106976;1257;58217;-72
2023/09/24 03:58:46;;;;;;;11.00;7.30;;;;;;;18.27;100.00;101074.36;106998;1254;57968;-70
2023/09/24 04:01:14;;;;;;;12.40;7.20;;;;;;;18.33;100.00;101074.64;106917;1249;73149;-70
2023/09/24 04:03:44;;;;;;;10.90;6.90;;;;;;;18.34;100.00;101079.30;107085;1248;71932;-70
2023/09/24 04:06:14;;;;;;;9.20;7.00;;;;;;;18.34;100.00;101082.48;107085;1249;70752;-70
2023/09/24 04:08:43;;;;;;;11.50;7.40;;;;;;;18.29;100.00;101087.36;106902;1251;62742;-70
2023/09/24 04:11:13;;;;;;;9.70;6.90;;;;;;;18.28;100.00;101092.05;107018;1255;62380;-71
2023/09/24 04:13:42;;;;;;;9.70;7.40;;;;;;;18.28;100.00;101089.76;107096;1249;61721;-70
2023/09/24 04:16:13;;;;;;;8.10;6.70;;;;;;;18.31;100.00;101091.41;106826;1244;73785;-71
2023/09/24 04:18:43;;;;;;;8.80;7.00;;;;;;;18.31;100.00;101093.33;106998;1245;72664;-70
2023/09/24 04:21:19;;;;;;;9.30;7.10;;;;;;;18.34;100.00;101092.03;107055;1257;58965;-72
2023/09/24 04:23:48;;;;;;;9.30;6.60;;;;;;;18.29;100.00;101093.40;107092;1249;72990;-71
2023/09/24 04:26:22;;;;;;;10.40;7.50;;;;;;;18.33;100.00;101097.02;107003;1255;58516;-70
2023/09/24 04:28:54;;;;;;;9.30;7.50;;;;;;;18.39;100.00;101095.94;107190;1247;59074;-70
2023/09/24 04:31:22;;;;;;;9.90;6.70;;;;;;;18.39;100.00;101089.59;107123;1255;73528;-70
2023/09/24 04:33:51;;;;;;;11.20;7.00;;;;;;;18.46;100.00;101084.60;107119;1249;72859;-70
2023/09/24 04:36:22;;;;;;;10.00;7.10;;;;;;;18.49;100.00;101089.25;107118;1255;59595;-72
2023/09/24 04:38:53;;;;;;;10.50;7.20;;;;;;;18.51;100.00;101100.64;107213;1251;62968;-70
2023/09/24 04:41:24;;;;;;;8.30;7.20;;;;;;;18.53;100.00;101108.63;107155;1256;58431;-71
2023/09/24 04:43:53;;;;;;;12.30;9.50;;;;;;;18.61;100.00;101112.21;107161;1253;59120;-70
2023/09/24 04:46:22;;;;;;;8.40;7.10;;;;;;;18.63;100.00;101116.77;107178;1249;62561;-70
2023/09/24 04:48:51;;;;;;;11.80;7.70;;;;;;;18.65;100.00;101124.77;107198;1256;61018;-71
2023/09/24 04:51:20;;;;;;;11.20;6.80;;;;;;;18.68;100.00;101129.71;107239;1257;59025;-70
2023/09/24 04:53:49;;;;;;;8.70;6.80;;;;;;;18.74;100.00;101141.64;107139;1257;63213;-70
2023/09/24 04:56:18;;;;;;;8.80;6.50;;;;;;;18.78;100.00;101154.60;107186;1248;58156;-70
2023/09/24 04:58:47;;;;;;;8.90;6.90;;;;;;;18.82;100.00;101160.13;107237;1246;59074;-67
2023/09/24 05:01:16;;;;;;;8.60;7.30;;;;;;;18.85;100.00;101167.17;107027;1249;73292;-68
2023/09/24 05:03:49;;;;;;;10.00;6.40;;;;;;;18.92;100.00;101173.50;107156;1251;61378;-69
2023/09/24 05:06:19;;;;;;;13.20;6.70;;;;;;;18.94;100.00;101178.15;107081;1257;59147;-68
2023/09/24 05:08:49;;;;;;;10.60;6.60;;;;;;;18.96;100.00;101183.40;106999;1249;73393;-68
2023/09/24 05:11:18;;;;;;;7.80;6.50;;;;;;;18.97;100.00;101179.70;106757;1250;63425;-68
2023/09/24 05:13:47;;;;;;;9.20;5.90;;;;;;;19.06;100.00;101186.81;107060;1245;60753;-69
2023/09/24 05:16:16;;;;;;;8.80;6.00;;;;;;;19.12;100.00;101189.02;106946;1248;62465;-69
2023/09/24 05:18:46;;;;;;;8.20;6.80;;;;;;;19.09;100.00;101197.48;106950;1249;72121;-69
2023/09/24 05:21:17;;;;;;;12.80;8.70;;;;;;;19.13;100.00;101209.23;107065;1248;60406;-73
2023/09/24 05:23:46;;;;;;;13.60;7.30;;;;;;;19.20;100.00;101208.88;107049;1248;64040;-70
2023/09/24 05:26:16;;;;;;;7.90;6.30;;;;;;;19.22;100.00;101203.31;106971;1249;58970;-69
2023/09/24 05:28:45;;;;;;;7.70;6.00;;;;;;;19.24;100.00;101202.48;107077;1249;59169;-70
2023/09/24 05:31:16;;;;;;;7.20;5.90;;;;;;;19.28;100.00;101204.35;107090;1257;62571;-69
2023/09/24 05:33:45;;;;;;;8.30;6.10;;;;;;;19.38;100.00;101207.98;107057;1249;72217;-70
2023/09/24 05:36:14;;;;;;;11.40;6.90;;;;;;;19.41;100.00;101212.08;107143;1249;59933;-73
2023/09/24 05:38:43;;;;;;;9.00;6.50;;;;;;;19.41;100.00;101212.77;107176;1248;74078;-70
2023/09/24 05:41:12;;;;;;;8.40;6.00;;;;;;;19.40;100.00;101212.47;106939;1257;64282;-70
2023/09/24 05:43:44;;;;;;;8.50;6.40;;;;;;;19.47;100.00;101212.09;107117;1248;62221;-69
2023/09/24 05:46:14;;;;;;;8.70;6.10;;;;;;;19.58;100.00;101204.98;107001;1250;73205;-71
2023/09/24 05:48:44;;;;;;;9.30;5.80;;;;;;;19.67;100.00;101210.08;107106;1257;61377;-69
2023/09/24 05:51:13;;;;;;;8.40;6.00;;;;;;;19.81;100.00;101224.19;107022;1255;60284;-71
2023/09/24 05:53:43;;;;;;;9.40;6.40;;;;;;;19.96;100.00;101227.80;107055;1249;72944;-68
2023/09/24 05:56:12;;;;;;;9.00;5.60;;;;;;;20.06;100.00;101218.59;107068;1244;58902;-77
2023/09/24 05:58:41;;;;;;;10.10;6.50;;;;;;;20.14;100.00;101220.01;107289;1246;59786;-76
2023/09/24 06:01:16;;;;;;;11.20;6.10;;;;;;;20.23;100.00;101233.44;107645;1257;73346;-77
2023/09/24 06:03:45;;;;;;;9.90;5.50;;;;;;;20.30;100.00;101238.89;108632;1249;61920;-77
2023/09/24 06:06:15;;;;;;;6.90;5.50;;;;;;;20.52;100.00;101241.00;107433;1247;70811;-76
2023/09/24 06:08:44;;;;;;;6.90;4.90;;;;;;;20.63;100.00;101244.97;107268;1247;74214;-76
2023/09/24 06:11:13;;;;;;;10.70;5.30;;;;;;;20.78;100.00;101245.27;107146;1249;61027;-77
2023/09/24 06:13:42;;;;;;;7.60;5.00;;;;;;;20.79;100.00;101255.79;107286;1244;60840;-74
2023/09/24 06:16:10;;;;;;;9.20;5.00;;;;;;;20.96;100.00;101262.06;107130;1250;73227;-77
2023/09/24 06:18:40;;;;;;;8.80;5.10;;;;;;;21.13;100.00;101260.27;107222;1245;72624;-80
2023/09/24 06:21:16;;;;;;;8.30;5.20;;;;;;;21.23;100.00;101263.48;107194;1255;69751;-79
2023/09/24 06:23:45;;;;;;;7.70;5.00;;;;;;;21.35;100.00;101261.13;107176;1249;62907;-79
2023/09/24 06:26:15;;;;;;;11.30;6.20;;;;;;;21.37;100.00;101266.84;107285;1245;62194;-78
2023/09/24 06:28:43;;;;;;;8.20;5.10;;;;;;;21.50;100.00;101270.05;107254;1256;60571;-78
2023/09/24 06:31:27;;;;;;;9.90;5.60;;;;;;;21.62;100.00;101266.77;107146;1246;72290;-81
2023/09/24 06:33:57;;;;;;;7.80;4.90;;;;;;;21.66;100.00;101265.79;106891;1251;72350;-80
2023/09/24 06:36:26;;;;;;;8.20;5.40;;;;;;;21.70;100.00;101269.30;107179;1244;62275;-80
2023/09/24 06:38:56;;;;;;;7.50;4.60;;;;;;;21.70;100.00;101270.03;106899;1257;63952;-81
2023/09/24 06:41:25;;;;;;;7.60;5.30;;;;;;;21.59;100.00;101272.93;107272;1256;61889;-81
2023/09/24 06:43:56;;;;;;;7.00;4.50;;;;;;;21.88;100.00;101275.59;107625;1249;59008;-81
2023/09/24 06:46:25;;;;;;;7.60;5.40;;;;;;;21.82;100.00;101277.01;107245;1257;62832;-78
2023/09/24 06:48:54;;;;;;;6.30;4.70;;;;;;;21.76;100.00;101277.13;107089;1248;61774;-81
2023/09/24 06:51:23;;;;;;;7.00;5.00;;;;;;;21.89;100.00;101281.29;107237;1256;59025;-78
2023/09/24 06:53:53;;;;;;;6.20;4.80;;;;;;;22.09;100.00;101282.70;107071;1249;63089;-78
2023/09/24 06:56:22;;;;;;;8.50;5.50;;;;;;;22.12;100.00;101283.95;107127;1245;58932;-78
2023/09/24 06:58:51;;;;;;;7.60;5.00;;;;;;;22.07;100.00;101290.85;107132;1246;59105;-80
2023/09/24 07:01:20;;;;;;;7.30;5.00;;;;;;;22.20;100.00;101294.73;107302;1248;62039;-81
2023/09/24 07:03:50;;;;;;;7.60;5.30;;;;;;;22.38;100.00;101296.71;107186;1249;60915;-80
2023/09/24 07:06:21;;;;;;;5.90;4.20;;;;;;;22.48;100.00;101295.17;109445;1244;69681;-80
2023/09/24 07:08:50;;;;;;;6.10;4.70;;;;;;;22.65;100.00;101291.02;109391;1244;63507;-81
2023/09/24 07:11:25;;;;;;;7.40;4.10;;;;;;;22.65;100.00;101297.55;109222;1248;57606;-82
2023/09/24 07:13:55;;;;;;;8.00;5.00;;;;;;;22.57;100.00;101298.35;109213;1244;60167;-84
2023/09/24 07:16:26;;;;;;;10.70;5.20;;;;;;;22.58;100.00;101300.55;109323;1244;74488;-77
2023/09/24 07:18:56;;;;;;;12.40;4.80;;;;;;;22.54;100.00;101301.84;109331;1244;62081;-82
2023/09/24 07:21:28;;;;;;;6.20;5.40;;;;;;;22.57;100.00;101301.73;109216;1244;60028;-80
2023/09/24 07:24:01;;;;;;;6.80;5.00;;;;;;;22.55;100.00;101305.11;109326;1245;62451;-87
2023/09/24 07:26:31;;;;;;;6.50;4.80;;;;;;;22.41;100.00;101305.00;109242;1244;62988;-86
2023/09/24 07:29:00;;;;;;;7.30;5.20;;;;;;;22.54;100.00;101301.83;109243;1244;60943;-79
2023/09/24 07:31:30;;;;;;;7.00;4.80;;;;;;;22.48;100.00;101300.89;109173;1244;65075;-80
2023/09/24 07:34:01;;;;;;;7.10;4.90;;;;;;;22.47;100.00;101298.97;109143;1244;71944;-74
2023/09/24 07:36:34;;;;;;;7.60;5.10;;;;;;;22.38;100.00;101297.98;109208;1244;70138;-75
2023/09/24 07:39:16;;;;;;;8.30;4.80;;;;;;;22.51;100.00;101300.05;109247;1245;63396;-77
2023/09/24 07:41:46;;;;;;;8.00;5.50;;;;;;;22.54;100.00;101301.02;109152;1245;57683;-77
2023/09/24 07:44:14;;;;;;;6.30;5.10;;;;;;;22.73;100.00;101305.54;109274;1243;60182;-80
2023/09/24 07:46:43;;;;;;;9.50;4.80;;;;;;;22.69;100.00;101309.89;109309;1244;62847;-80
2023/09/24 07:49:12;;;;;;;7.80;4.70;;;;;;;22.69;100.00;101317.71;109319;1245;60635;-80
2023/09/24 07:51:41;;;;;;;6.20;4.60;;;;;;;22.80;100.00;101316.29;109322;1244;59020;-80
2023/09/24 07:54:10;;;;;;;5.80;4.70;;;;;;;22.80;100.00;101315.55;109311;1245;62459;-82
2023/09/24 07:56:41;;;;;;;6.20;4.80;;;;;;;22.68;100.00;101316.92;109306;1245;57140;-85
2023/09/24 07:59:11;;;;;;;7.60;5.20;;;;;;;22.57;100.00;101317.02;109292;1245;57285;-80
2023/09/24 08:01:41;;;;;;;7.20;5.30;;;;;;;22.53;100.00;101316.55;109322;1244;73300;-82
2023/09/24 08:04:11;;;;;;;9.50;5.40;;;;;;;22.59;100.00;101315.22;109332;1244;63908;-84
2023/09/24 08:06:42;;;;;;;8.80;5.10;;;;;;;22.63;100.00;101310.06;109292;1244;60518;-83
2023/09/24 08:09:12;;;;;;;8.90;4.90;;;;;;;22.75;100.00;101307.66;109189;1244;73884;-82
2023/09/24 08:11:55;;;;;;;6.20;4.90;;;;;;;22.74;100.00;101304.88;109314;1245;57724;-84
2023/09/24 08:14:24;;;;;;;6.10;4.50;;;;;;;22.80;100.00;101304.58;109417;1245;57589;-81
2023/09/24 08:16:54;;;;;;;8.50;4.30;;;;;;;22.97;100.00;101302.25;109421;1244;71670;-81
2023/09/24 08:19:26;;;;;;;7.70;4.50;;;;;;;23.02;100.00;101298.49;109468;1245;61872;-80
2023/09/24 08:21:55;;;;;;;7.70;4.20;;;;;;;23.11;100.00;101299.63;109427;1244;59365;-86
2023/09/24 08:24:24;;;;;;;5.40;4.40;;;;;;;23.22;100.00;101293.14;109493;1243;73269;-84
2023/09/24 08:26:54;;;;;;;6.50;4.30;;;;;;;23.31;100.00;101294.36;109432;1244;61464;-83
2023/09/24 08:29:24;;;;;;;8.10;4.10;;;;;;;23.23;100.00;101291.36;109387;1247;57872;-85
2023/09/24 08:31:53;;;;;;;9.20;4.40;;;;;;;23.37;100.00;101293.34;109415;1244;62841;-85
2023/09/24 08:34:22;;;;;;;6.90;3.90;;;;;;;23.51;100.00;101298.94;109445;1244;69172;-82
2023/09/24 08:36:51;;;;;;;6.40;3.90;;;;;;;23.64;100.00;101291.52;109199;1245;309950;-82
2023/09/24 08:39:20;;;;;;;6.00;3.40;;;;;;;23.81;100.00;101288.66;109357;1244;74434;-82
2023/09/24 08:41:53;;;;;;;7.80;4.20;;;;;;;23.92;100.00;101282.48;109475;1243;61106;-83
2023/09/24 08:44:24;;;;;;;9.30;3.90;;;;;;;24.04;100.00;101285.69;109379;1244;57789;-83
2023/09/24 08:46:58;;;;;;;6.50;3.90;;;;;;;23.95;100.00;101281.30;109387;1243;72824;-83
2023/09/24 08:49:27;;;;;;;7.10;4.20;;;;;;;24.24;100.00;101280.04;109397;1244;61355;-83
2023/09/24 08:52:00;;;;;;;6.80;4.10;;;;;;;24.44;100.00;101272.64;109368;1244;70321;-84
2023/09/24 08:54:30;;;;;;;5.40;4.00;;;;;;;24.44;100.00;101273.27;109463;1244;74258;-83
2023/09/24 08:56:59;;;;;;;7.10;4.70;;;;;;;24.55;100.00;101269.69;109471;1245;57683;-83
2023/09/24 08:59:29;;;;;;;5.20;3.70;;;;;;;24.71;100.00;101267.52;109422;1245;59709;-81
2023/09/24 09:01:58;;;;;;;8.90;5.40;;;;;;;24.85;100.00;101267.62;109424;1244;63165;-81
2023/09/24 09:04:27;;;;;;;6.30;4.00;;;;;;;25.00;100.00;101268.73;109451;1244;61213;-82
2023/09/24 09:07:11;;;;;;;8.30;4.10;;;;;;;24.89;100.00;101274.19;109229;1244;68479;-81
2023/09/24 09:09:41;;;;;;;6.20;4.10;;;;;;;24.80;100.00;101275.14;109286;1248;63705;-79
2023/09/24 09:12:20;;;;;;;7.00;4.00;;;;;;;24.83;100.00;101276.97;109273;1245;61230;-79
2023/09/24 09:14:50;;;;;;;10.30;4.20;;;;;;;25.11;100.00;101274.46;109228;1245;57228;-81
2023/09/24 09:17:19;;;;;;;5.20;3.90;;;;;;;25.13;100.00;101280.83;109304;1244;62738;-77
2023/09/24 09:19:59;;;;;;;5.10;3.60;;;;;;;25.09;100.00;101281.55;109242;1244;61748;-85
2023/09/24 09:22:29;;;;;;;8.70;5.60;;;;;;;25.15;100.00;101281.66;109214;1244;70509;-77
2023/09/24 09:25:07;;;;;;;15.60;8.40;;;;;;;25.21;100.00;101280.55;109150;1248;63980;-75
2023/09/24 09:27:43;;;;;;;6.40;3.90;;;;;;;25.31;100.00;101278.01;109144;1247;57704;-80
2023/09/24 09:30:18;;;;;;;9.20;4.20;;;;;;;25.33;100.00;101273.33;109298;1243;60242;-77
2023/09/24 09:32:48;;;;;;;9.00;4.00;;;;;;;25.36;100.00;101274.75;109324;1244;74024;-79
2023/09/24 09:35:17;;;;;;;6.60;4.30;;;;;;;25.30;100.00;101275.48;109146;1247;62094;-80
2023/09/24 09:38:28;;;;;;;7.90;4.40;;;;;;;25.22;100.00;101273.81;104806;1279;601579;-78
2023/09/24 09:40:59;;;;;;;8.20;4.60;;;;;;;25.69;100.00;101273.23;106773;1257;59137;-77
2023/09/24 09:43:33;;;;;;;5.70;4.00;;;;;;;25.93;100.00;101273.90;107026;1251;61219;-78
2023/09/24 09:46:07;;;;;;;8.60;4.20;;;;;;;25.57;100.00;101277.58;107008;1251;72638;-79
2023/09/24 09:48:37;;;;;;;6.20;4.10;;;;;;;25.80;100.00;101272.55;106958;1251;61933;-76
2023/09/24 09:51:15;;;;;;;8.40;4.30;;;;;;;25.84;100.00;101269.72;106436;1248;326692;-77
2023/09/24 09:53:45;;;;;;;6.30;4.40;;;;;;;26.04;100.00;101271.02;106883;1251;62907;-76
2023/09/24 09:56:14;;;;;;;7.40;4.60;;;;;;;26.18;100.00;101270.80;106877;1246;58927;-75
2023/09/24 09:58:47;;;;;;;9.10;4.00;;;;;;;26.24;100.00;101273.50;106891;1257;58318;-78
2023/09/24 10:01:20;;;;;;;8.00;4.50;;;;;;;26.45;100.00;101278.26;107070;1248;71011;-75
2023/09/24 10:03:53;;;;;;;5.40;4.20;;;;;;;26.51;100.00;101276.34;106914;1251;62328;-74
2023/09/24 10:06:23;;;;;;;8.80;4.00;;;;;;;26.64;100.00;101272.45;106979;1247;61760;-76
2023/09/24 10:08:53;;;;;;;7.40;4.00;;;;;;;26.51;100.00;101270.72;106967;1257;72786;-79
2023/09/24 10:11:31;;;;;;;6.90;4.20;;;;;;;26.51;100.00;101272.73;107037;1255;58900;-81
2023/09/24 10:14:05;;;;;;;5.70;4.20;;;;;;;26.74;100.00;101278.30;107087;1249;59038;-79
2023/09/24 10:16:38;;;;;;;6.30;3.70;;;;;;;26.79;100.00;101275.30;107120;1251;62962;-73
2023/09/24 10:19:13;;;;;;;5.50;3.90;;;;;;;26.89;100.00;101276.71;107160;1248;62957;-72
2023/09/24 10:21:44;;;;;;;7.50;4.10;;;;;;;26.90;100.00;101273.41;107008;1257;60496;-75
2023/09/24 10:24:13;;;;;;;5.80;4.10;;;;;;;26.87;100.00;101272.95;107191;1248;73779;-76
2023/09/24 10:27:03;;;;;;;5.20;3.90;;;;;;;27.00;100.00;101268.31;107157;1249;61160;-76
2023/09/24 10:29:45;;;;;;;6.30;4.10;;;;;;;27.18;100.00;101264.70;107068;1254;60880;-76
2023/09/24 10:32:23;;;;;;;6.30;4.10;;;;;;;27.76;100.00;101264.14;107017;1252;74130;-75
2023/09/24 10:34:55;;;;;;;6.50;3.90;;;;;;;28.21;100.00;101257.95;106980;1248;61040;-74
2023/09/24 10:37:37;;;;;;;6.40;3.90;;;;;;;28.47;100.00;101259.11;106991;1244;70461;-75
2023/09/24 10:40:11;;;;;;;8.40;3.90;;;;;;;28.62;99.90;101259.40;107085;1248;72648;-72
2023/09/24 10:42:43;;;;;;;7.10;4.10;;;;;;;28.52;99.69;101255.26;106860;1255;61553;-75
2023/09/24 10:45:12;;;;;;;8.70;3.90;;;;;;;28.51;100.00;101255.76;106868;1247;59129;-71
2023/09/24 10:47:46;;;;;;;9.00;4.20;;;;;;;28.80;98.13;101254.77;107159;1247;62159;-82
2023/09/24 10:50:21;;;;;;;6.90;3.90;;;;;;;28.74;97.07;101253.90;107085;1255;61622;-81
2023/09/24 10:53:09;;;;;;;6.40;4.00;;;;;;;28.81;96.12;101253.56;107166;1257;69811;-82
2023/09/24 10:55:40;;;;;;;5.10;3.80;;;;;;;28.80;93.82;101241.58;107177;1254;64105;-79
2023/09/24 10:58:13;;;;;;;5.90;3.60;;;;;;;29.42;91.75;101250.70;107253;1244;59925;-80
2023/09/24 11:00:45;;;;;;;6.20;3.00;;;;;;;29.84;88.65;101248.04;107653;1244;57492;-81
2023/09/24 11:03:14;;;;;;;7.50;3.80;;;;;;;30.36;84.69;101250.30;108076;1249;71320;-82
2023/09/24 11:05:48;;;;;;;6.50;4.00;;;;;;;30.19;85.61;101251.19;106883;1257;63092;-80
2023/09/24 11:08:26;;;;;;;5.60;3.50;;;;;;;30.59;84.63;101248.27;107137;1244;70471;-79
2023/09/24 11:10:56;;;;;;;7.50;3.90;;;;;;;30.88;81.06;101250.30;107288;1245;65576;-76
2023/09/24 11:13:25;;;;;;;5.60;3.50;;;;;;;30.43;82.86;101254.54;107217;1247;60927;-79
2023/09/24 11:15:54;;;;;;;5.10;3.60;;;;;;;30.39;83.86;101247.81;107176;1247;59643;-79
2023/09/24 11:18:25;;;;;;;6.50;3.90;;;;;;;30.32;83.47;101247.89;107254;1257;61174;-82
2023/09/24 11:20:54;;;;;;;7.30;3.70;;;;;;;30.00;84.33;101253.50;107300;1257;61685;-81
2023/09/24 11:23:23;;;;;;;5.40;4.00;;;;;;;30.01;84.64;101249.08;107204;1257;59637;-82
2023/09/24 11:25:52;;;;;;;6.20;3.80;;;;;;;30.05;84.61;101247.89;107245;1257;63158;-81